Station Historical Data
Daily Summary for March 15, 2017 Units:  English    Metric   Both
« Previous Day
Next Day »
Daily Weekly Monthly Yearly Custom
  High: Low: Average:
Temperature: 26.6 °F 14.3 °F 19.8 °F
Dew Point: 17.1 °F 10.9 °F 13 °F
Humidity: 88% 54% 76%
Wind Speed: 19.0mph 1.0mph 7.7mph
Wind Gust: 27.0mph - -
Wind- - NW
Pressure: 30.04 in 29.79 in -
Precipitation: 0.00 in    
Historical Graphs
 
 
Tabular Data for March 15, 2017
Time Temperature Dew Point Pressure Wind Wind Speed Wind Gust Humidity Rainfall Rate (Hourly)
00:04 16.2 °F 13.0 °F 29.88 in NW 4.0 mph 13.0 mph 87% 0.00 in
00:09 16.1 °F 12.9 °F 29.88 in NNW 10.0 mph 18.0 mph 87% 0.00 in
00:14 16.0 °F 12.8 °F 29.88 in North 5.0 mph 14.0 mph 87% 0.00 in
00:19 16.0 °F 12.8 °F 29.88 in NNE 9.0 mph 14.0 mph 87% 0.00 in
00:24 15.9 °F 12.7 °F 29.88 in NW 5.0 mph 12.0 mph 87% 0.00 in
00:29 15.9 °F 12.7 °F 29.87 in North 5.0 mph 13.0 mph 87% 0.00 in
00:34 15.8 °F 12.6 °F 29.87 in NNW 7.0 mph 13.0 mph 87% 0.00 in
00:39 15.9 °F 12.7 °F 29.87 in NNW 7.0 mph 13.0 mph 87% 0.00 in
00:44 15.7 °F 12.5 °F 29.87 in NNW 6.0 mph 13.0 mph 87% 0.00 in
00:49 15.8 °F 12.6 °F 29.88 in NNW 6.0 mph 13.0 mph 87% 0.00 in
00:54 15.7 °F 12.5 °F 29.87 in NNW 6.0 mph 13.0 mph 87% 0.00 in
00:59 15.6 °F 12.4 °F 29.87 in NNW 5.0 mph 12.0 mph 87% 0.00 in
01:04 15.6 °F 12.4 °F 29.87 in North 5.0 mph 13.0 mph 87% 0.00 in
01:09 15.5 °F 12.3 °F 29.87 in North 7.0 mph 11.0 mph 87% 0.00 in
01:14 15.5 °F 12.3 °F 29.86 in NNW 5.0 mph 11.0 mph 87% 0.00 in
01:19 15.5 °F 12.3 °F 29.86 in NW 4.0 mph 13.0 mph 87% 0.00 in
01:24 15.5 °F 12.3 °F 29.86 in NNW 2.0 mph 10.0 mph 87% 0.00 in
01:29 15.4 °F 12.2 °F 29.86 in NNW 4.0 mph 10.0 mph 87% 0.00 in
01:34 15.4 °F 12.2 °F 29.86 in North 7.0 mph 12.0 mph 87% 0.00 in
01:39 15.4 °F 12.2 °F 29.86 in NW 5.0 mph 11.0 mph 87% 0.00 in
01:44 15.4 °F 12.2 °F 29.86 in NNW 5.0 mph 14.0 mph 87% 0.00 in
01:49 15.3 °F 12.1 °F 29.86 in NNW 4.0 mph 14.0 mph 87% 0.00 in
01:54 15.3 °F 12.1 °F 29.86 in NNW 4.0 mph 12.0 mph 87% 0.00 in
01:59 15.3 °F 12.1 °F 29.86 in West 6.0 mph 12.0 mph 87% 0.00 in
02:04 15.2 °F 12.0 °F 29.86 in NNW 4.0 mph 10.0 mph 87% 0.00 in
02:09 15.2 °F 12.0 °F 29.86 in NNW 3.0 mph 12.0 mph 87% 0.00 in
02:14 15.3 °F 12.1 °F 29.85 in NNW 5.0 mph 12.0 mph 87% 0.00 in
02:19 15.3 °F 12.1 °F 29.85 in NNW 5.0 mph 12.0 mph 87% 0.00 in
02:24 15.2 °F 12.0 °F 29.85 in NNW 5.0 mph 13.0 mph 87% 0.00 in
02:29 15.3 °F 12.1 °F 29.85 in NNW 9.0 mph 15.0 mph 87% 0.00 in
02:34 15.2 °F 12.0 °F 29.85 in NW 6.0 mph 13.0 mph 87% 0.00 in
02:39 15.2 °F 12.0 °F 29.84 in NNW 2.0 mph 10.0 mph 87% 0.00 in
02:44 15.2 °F 11.8 °F 29.84 in NNW 4.0 mph 10.0 mph 86% 0.00 in
02:49 15.2 °F 12.0 °F 29.84 in NNW 5.0 mph 10.0 mph 87% 0.00 in
02:54 15.2 °F 11.8 °F 29.84 in NNW 6.0 mph 13.0 mph 86% 0.00 in
02:59 15.2 °F 11.8 °F 29.84 in NNW 7.0 mph 14.0 mph 86% 0.00 in
03:04 15.2 °F 11.8 °F 29.83 in NW 7.0 mph 13.0 mph 86% 0.00 in
03:09 15.1 °F 11.7 °F 29.83 in NNW 4.0 mph 12.0 mph 86% 0.00 in
03:14 15.1 °F 11.7 °F 29.83 in NNW 5.0 mph 11.0 mph 86% 0.00 in
03:19 15.0 °F 11.6 °F 29.83 in NW 7.0 mph 13.0 mph 86% 0.00 in
03:24 15.0 °F 11.6 °F 29.83 in North 5.0 mph 15.0 mph 86% 0.00 in
03:29 14.9 °F 11.5 °F 29.83 in North 7.0 mph 16.0 mph 86% 0.00 in
03:34 14.8 °F 11.4 °F 29.83 in West 9.0 mph 15.0 mph 86% 0.00 in
03:39 14.8 °F 11.4 °F 29.82 in NNW 7.0 mph 12.0 mph 86% 0.00 in
03:44 14.8 °F 11.6 °F 29.83 in NNW 6.0 mph 9.0 mph 87% 0.00 in
03:49 14.9 °F 11.7 °F 29.82 in NW 1.0 mph 10.0 mph 87% 0.00 in
03:54 15.0 °F 11.8 °F 29.82 in NW 4.0 mph 10.0 mph 87% 0.00 in
03:59 15.0 °F 11.8 °F 29.82 in NW 4.0 mph 8.0 mph 87% 0.00 in
04:04 14.8 °F 11.6 °F 29.82 in NW 5.0 mph 10.0 mph 87% 0.00 in
04:09 14.7 °F 11.5 °F 29.81 in NW 5.0 mph 13.0 mph 87% 0.00 in
04:14 14.7 °F 11.3 °F 29.81 in NW 5.0 mph 13.0 mph 86% 0.00 in
04:19 14.6 °F 11.2 °F 29.81 in NW 6.0 mph 13.0 mph 86% 0.00 in
04:24 14.6 °F 11.2 °F 29.82 in NW 4.0 mph 11.0 mph 86% 0.00 in
04:29 14.6 °F 11.2 °F 29.82 in North 5.0 mph 7.0 mph 86% 0.00 in
04:34 14.6 °F 11.2 °F 29.81 in WNW 8.0 mph 11.0 mph 86% 0.00 in
04:39 14.5 °F 11.1 °F 29.81 in West 7.0 mph 11.0 mph 86% 0.00 in
04:44 14.5 °F 11.1 °F 29.81 in NNW 4.0 mph 15.0 mph 86% 0.00 in
04:49 14.5 °F 11.1 °F 29.81 in North 5.0 mph 11.0 mph 86% 0.00 in
04:54 14.4 °F 11.0 °F 29.81 in NW 5.0 mph 12.0 mph 86% 0.00 in
04:59 14.4 °F 11.0 °F 29.82 in NW 6.0 mph 15.0 mph 86% 0.00 in
05:04 14.3 °F 10.9 °F 29.81 in NW 6.0 mph 15.0 mph 86% 0.00 in
05:09 14.3 °F 10.9 °F 29.81 in NW 6.0 mph 13.0 mph 86% 0.00 in
05:14 14.3 °F 10.9 °F 29.81 in NW 6.0 mph 13.0 mph 86% 0.00 in
05:19 14.3 °F 10.9 °F 29.81 in NW 7.0 mph 16.0 mph 86% 0.00 in
05:24 14.3 °F 10.9 °F 29.81 in NW 8.0 mph 16.0 mph 86% 0.00 in
05:29 14.3 °F 10.9 °F 29.80 in NW 7.0 mph 15.0 mph 86% 0.00 in
05:34 14.3 °F 10.9 °F 29.80 in NW 10.0 mph 14.0 mph 86% 0.00 in
05:39 14.3 °F 10.9 °F 29.81 in NNW 6.0 mph 13.0 mph 86% 0.00 in
05:44 14.3 °F 10.9 °F 29.80 in WNW 5.0 mph 11.0 mph 86% 0.00 in
05:49 14.3 °F 10.9 °F 29.80 in North 7.0 mph 12.0 mph 86% 0.00 in
05:54 14.3 °F 10.9 °F 29.81 in NW 6.0 mph 12.0 mph 86% 0.00 in
05:59 14.3 °F 10.9 °F 29.80 in NW 6.0 mph 12.0 mph 86% 0.00 in
06:04 14.4 °F 11.0 °F 29.80 in NW 5.0 mph 11.0 mph 86% 0.00 in
06:09 14.4 °F 11.0 °F 29.80 in NW 8.0 mph 10.0 mph 86% 0.00 in
06:14 14.5 °F 11.1 °F 29.80 in WNW 9.0 mph 9.0 mph 86% 0.00 in
06:19 14.6 °F 11.2 °F 29.80 in NW 6.0 mph 14.0 mph 86% 0.00 in
06:24 14.7 °F 11.3 °F 29.80 in NW 6.0 mph 14.0 mph 86% 0.00 in
06:29 14.8 °F 11.4 °F 29.80 in NW 6.0 mph 12.0 mph 86% 0.00 in
06:34 14.8 °F 11.6 °F 29.80 in NW 5.0 mph 12.0 mph 87% 0.00 in
06:39 14.8 °F 11.6 °F 29.80 in North 5.0 mph 10.0 mph 87% 0.00 in
06:44 15.0 °F 11.8 °F 29.80 in WNW 2.0 mph 16.0 mph 87% 0.00 in
06:49 15.0 °F 11.8 °F 29.80 in NW 8.0 mph 11.0 mph 87% 0.00 in
06:54 15.1 °F 11.9 °F 29.79 in NW 5.0 mph 13.0 mph 87% 0.00 in
06:59 15.2 °F 12.0 °F 29.79 in NW 6.0 mph 13.0 mph 87% 0.00 in
07:04 15.3 °F 12.1 °F 29.79 in NNW 8.0 mph 16.0 mph 87% 0.00 in
07:09 15.4 °F 12.2 °F 29.79 in NNW 8.0 mph 13.0 mph 87% 0.00 in
07:14 15.5 °F 12.3 °F 29.79 in NNW 3.0 mph 10.0 mph 87% 0.00 in
07:19 15.5 °F 12.3 °F 29.80 in WNW 3.0 mph 11.0 mph 87% 0.00 in
07:24 15.6 °F 12.4 °F 29.79 in NW 5.0 mph 12.0 mph 87% 0.00 in
07:29 15.6 °F 12.4 °F 29.80 in NW 5.0 mph 12.0 mph 87% 0.00 in
07:34 15.7 °F 12.5 °F 29.79 in NW 5.0 mph 13.0 mph 87% 0.00 in
07:39 15.8 °F 12.6 °F 29.80 in NW 6.0 mph 10.0 mph 87% 0.00 in
07:44 15.8 °F 12.6 °F 29.80 in North 5.0 mph 13.0 mph 87% 0.00 in
07:49 15.8 °F 12.6 °F 29.79 in WNW 3.0 mph 12.0 mph 87% 0.00 in
07:54 15.9 °F 13.0 °F 29.80 in NW 5.0 mph 12.0 mph 88% 0.00 in
07:59 15.9 °F 13.0 °F 29.79 in NW 6.0 mph 14.0 mph 88% 0.00 in
08:04 16.1 °F 13.2 °F 29.79 in WNW 5.0 mph 12.0 mph 88% 0.00 in
08:09 16.2 °F 13.3 °F 29.79 in NW 3.0 mph 11.0 mph 88% 0.00 in
08:14 16.3 °F 13.4 °F 29.79 in NNW 5.0 mph 11.0 mph 88% 0.00 in
08:19 16.4 °F 13.5 °F 29.79 in NW 6.0 mph 10.0 mph 88% 0.00 in
08:24 16.5 °F 13.6 °F 29.79 in NW 5.0 mph 13.0 mph 88% 0.00 in
08:29 16.6 °F 13.7 °F 29.80 in NW 5.0 mph 13.0 mph 88% 0.00 in
08:34 16.7 °F 13.8 °F 29.79 in NW 6.0 mph 12.0 mph 88% 0.00 in
08:39 16.8 °F 13.9 °F 29.79 in NW 6.0 mph 12.0 mph 88% 0.00 in
08:44 16.9 °F 14.0 °F 29.80 in NW 6.0 mph 13.0 mph 88% 0.00 in
08:49 17.1 °F 14.2 °F 29.80 in WNW 9.0 mph 11.0 mph 88% 0.00 in
08:54 17.2 °F 14.3 °F 29.80 in NW 6.0 mph 17.0 mph 88% 0.00 in
08:59 17.2 °F 14.3 °F 29.80 in NNW 5.0 mph 14.0 mph 88% 0.00 in
09:04 17.3 °F 14.4 °F 29.80 in NNW 6.0 mph 14.0 mph 88% 0.00 in
09:09 17.4 °F 14.5 °F 29.80 in West 7.0 mph 15.0 mph 88% 0.00 in
09:14 17.6 °F 14.7 °F 29.80 in NW 10.0 mph 13.0 mph 88% 0.00 in
09:19 17.6 °F 14.4 °F 29.80 in NW 7.0 mph 17.0 mph 87% 0.00 in
09:24 17.6 °F 14.4 °F 29.80 in NW 7.0 mph 17.0 mph 87% 0.00 in
09:29 17.7 °F 14.8 °F 29.80 in NW 6.0 mph 14.0 mph 88% 0.00 in
09:34 17.8 °F 14.6 °F 29.80 in North 5.0 mph 15.0 mph 87% 0.00 in
09:39 17.9 °F 14.9 °F 29.80 in NW 8.0 mph 17.0 mph 88% 0.00 in
09:44 17.8 °F 14.8 °F 29.80 in NW 9.0 mph 22.0 mph 88% 0.00 in
09:49 18.0 °F 15.0 °F 29.80 in NNW 12.0 mph 15.0 mph 88% 0.00 in
09:54 18.0 °F 15.0 °F 29.80 in NW 7.0 mph 18.0 mph 88% 0.00 in
09:59 18.1 °F 15.1 °F 29.80 in NW 7.0 mph 16.0 mph 88% 0.00 in
10:04 18.3 °F 15.1 °F 29.80 in NW 9.0 mph 15.0 mph 87% 0.00 in
10:09 18.4 °F 15.2 °F 29.81 in WNW 9.0 mph 18.0 mph 87% 0.00 in
10:14 18.5 °F 15.3 °F 29.81 in WNW 8.0 mph 15.0 mph 87% 0.00 in
10:19 18.7 °F 15.5 °F 29.81 in NW 11.0 mph 16.0 mph 87% 0.00 in
10:24 18.8 °F 15.6 °F 29.81 in West 6.0 mph 11.0 mph 87% 0.00 in
10:29 19.0 °F 15.8 °F 29.81 in NW 7.0 mph 16.0 mph 87% 0.00 in
10:34 19.2 °F 16.0 °F 29.81 in NW 7.0 mph 16.0 mph 87% 0.00 in
10:39 19.2 °F 16.0 °F 29.82 in NW 7.0 mph 17.0 mph 87% 0.00 in
10:44 19.1 °F 15.6 °F 29.82 in NW 8.0 mph 19.0 mph 86% 0.00 in
10:49 19.1 °F 15.9 °F 29.82 in NNW 6.0 mph 19.0 mph 87% 0.00 in
10:54 19.3 °F 16.1 °F 29.82 in NW 8.0 mph 19.0 mph 87% 0.00 in
10:59 19.5 °F 16.3 °F 29.82 in NW 8.0 mph 14.0 mph 87% 0.00 in
11:04 19.6 °F 16.4 °F 29.82 in NW 9.0 mph 19.0 mph 87% 0.00 in
11:09 19.6 °F 16.4 °F 29.82 in NW 11.0 mph 19.0 mph 87% 0.00 in
11:14 19.6 °F 16.4 °F 29.82 in NNW 7.0 mph 17.0 mph 87% 0.00 in
11:19 19.8 °F 16.6 °F 29.82 in North 5.0 mph 14.0 mph 87% 0.00 in
11:24 20.0 °F 16.8 °F 29.82 in NW 7.0 mph 15.0 mph 87% 0.00 in
11:29 20.0 °F 16.5 °F 29.82 in NW 7.0 mph 21.0 mph 86% 0.00 in
11:34 20.0 °F 16.5 °F 29.83 in NW 12.0 mph 16.0 mph 86% 0.00 in
11:39 19.9 °F 16.4 °F 29.82 in North 7.0 mph 18.0 mph 86% 0.00 in
11:44 19.9 °F 16.4 °F 29.83 in NW 3.0 mph 19.0 mph 86% 0.00 in
11:49 19.9 °F 16.4 °F 29.83 in NNW 6.0 mph 18.0 mph 86% 0.00 in
11:54 20.0 °F 16.5 °F 29.83 in NW 8.0 mph 18.0 mph 86% 0.00 in
11:59 20.1 °F 16.6 °F 29.83 in NW 8.0 mph 18.0 mph 86% 0.00 in
12:04 20.2 °F 16.7 °F 29.83 in NW 8.0 mph 16.0 mph 86% 0.00 in
12:09 20.5 °F 16.7 °F 29.83 in NW 6.0 mph 16.0 mph 85% 0.00 in
12:14 20.7 °F 16.9 °F 29.84 in NW 6.0 mph 15.0 mph 85% 0.00 in
12:19 20.7 °F 16.6 °F 29.84 in NW 5.0 mph 19.0 mph 84% 0.00 in
12:24 20.8 °F 16.7 °F 29.84 in NW 9.0 mph 19.0 mph 84% 0.00 in
12:29 21.0 °F 16.9 °F 29.83 in NW 8.0 mph 19.0 mph 84% 0.00 in
12:34 21.4 °F 17.0 °F 29.84 in NNW 10.0 mph 15.0 mph 83% 0.00 in
12:39 21.7 °F 17.1 °F 29.84 in NNW 12.0 mph 16.0 mph 82% 0.00 in
12:44 21.7 °F 16.5 °F 29.84 in North 2.0 mph 20.0 mph 80% 0.00 in
12:49 21.8 °F 16.6 °F 29.84 in NNW 9.0 mph 20.0 mph 80% 0.00 in
12:54 22.1 °F 16.6 °F 29.84 in NW 8.0 mph 20.0 mph 79% 0.00 in
12:59 22.5 °F 16.7 °F 29.85 in NW 8.0 mph 16.0 mph 78% 0.00 in
13:04 23.0 °F 16.9 °F 29.85 in NW 8.0 mph 18.0 mph 77% 0.00 in
13:09 23.0 °F 16.3 °F 29.85 in NW 9.0 mph 25.0 mph 75% 0.00 in
13:14 23.5 °F 16.1 °F 29.85 in WNW 9.0 mph 25.0 mph 73% 0.00 in
13:19 23.6 °F 15.6 °F 29.85 in WNW 9.0 mph 22.0 mph 71% 0.00 in
13:24 23.6 °F 15.2 °F 29.85 in WNW 10.0 mph 19.0 mph 70% 0.00 in
13:29 23.6 °F 15.2 °F 29.85 in NW 7.0 mph 24.0 mph 70% 0.00 in
13:34 23.9 °F 14.9 °F 29.85 in WNW 11.0 mph 20.0 mph 68% 0.00 in
13:39 24.1 °F 14.7 °F 29.85 in WNW 8.0 mph 19.0 mph 67% 0.00 in
13:44 24.4 °F 14.7 °F 29.85 in NNW 11.0 mph 19.0 mph 66% 0.00 in
13:49 24.6 °F 14.5 °F 29.85 in NW 11.0 mph 21.0 mph 65% 0.00 in
13:54 24.7 °F 13.9 °F 29.85 in WNW 18.0 mph 20.0 mph 63% 0.00 in
13:59 24.7 °F 13.9 °F 29.85 in NW 10.0 mph 21.0 mph 63% 0.00 in
14:04 24.5 °F 14.4 °F 29.85 in WNW 10.0 mph 21.0 mph 65% 0.00 in
14:09 24.8 °F 14.0 °F 29.85 in West 10.0 mph 19.0 mph 63% 0.00 in
14:14 25.1 °F 14.3 °F 29.85 in NW 6.0 mph 16.0 mph 63% 0.00 in
14:19 25.3 °F 13.3 °F 29.86 in NW 9.0 mph 16.0 mph 60% 0.00 in
14:24 25.5 °F 14.3 °F 29.85 in NW 9.0 mph 20.0 mph 62% 0.00 in
14:29 25.1 °F 13.9 °F 29.86 in WNW 11.0 mph 20.0 mph 62% 0.00 in
14:34 25.3 °F 14.1 °F 29.86 in NW 7.0 mph 18.0 mph 62% 0.00 in
14:39 25.9 °F 14.3 °F 29.86 in West 15.0 mph 19.0 mph 61% 0.00 in
14:44 25.5 °F 15.0 °F 29.86 in West 15.0 mph 23.0 mph 64% 0.00 in
14:49 25.0 °F 15.2 °F 29.86 in WNW 16.0 mph 20.0 mph 66% 0.00 in
14:54 25.1 °F 15.3 °F 29.86 in WNW 8.0 mph 23.0 mph 66% 0.00 in
14:59 25.6 °F 14.0 °F 29.86 in West 10.0 mph 18.0 mph 61% 0.00 in
15:04 25.5 °F 13.9 °F 29.86 in WNW 11.0 mph 22.0 mph 61% 0.00 in
15:09 25.8 °F 13.8 °F 29.86 in WNW 11.0 mph 22.0 mph 60% 0.00 in
15:14 25.0 °F 15.2 °F 29.87 in WNW 13.0 mph 24.0 mph 66% 0.00 in
15:19 25.3 °F 14.8 °F 29.87 in NW 12.0 mph 19.0 mph 64% 0.00 in
15:24 26.0 °F 14.0 °F 29.87 in NNW 6.0 mph 19.0 mph 60% 0.00 in
15:29 26.1 °F 13.3 °F 29.88 in West 10.0 mph 22.0 mph 58% 0.00 in
15:34 26.0 °F 13.6 °F 29.88 in WNW 10.0 mph 22.0 mph 59% 0.00 in
15:39 25.7 °F 13.3 °F 29.88 in WNW 11.0 mph 24.0 mph 59% 0.00 in
15:44 25.7 °F 13.7 °F 29.88 in WSW 9.0 mph 20.0 mph 60% 0.00 in
15:49 26.1 °F 12.9 °F 29.88 in NNW 7.0 mph 18.0 mph 57% 0.00 in
15:54 25.8 °F 13.8 °F 29.89 in North 8.0 mph 25.0 mph 60% 0.00 in
15:59 25.8 °F 13.0 °F 29.89 in WNW 17.0 mph 24.0 mph 58% 0.00 in
16:04 25.8 °F 13.4 °F 29.89 in West 9.0 mph 19.0 mph 59% 0.00 in
16:09 25.7 °F 12.9 °F 29.89 in WNW 13.0 mph 27.0 mph 58% 0.00 in
16:14 26.0 °F 12.8 °F 29.89 in WNW 12.0 mph 27.0 mph 57% 0.00 in
16:19 25.7 °F 12.9 °F 29.89 in West 9.0 mph 24.0 mph 58% 0.00 in
16:24 25.6 °F 13.2 °F 29.89 in West 18.0 mph 23.0 mph 59% 0.00 in
16:29 25.9 °F 13.5 °F 29.89 in WNW 18.0 mph 24.0 mph 59% 0.00 in
16:34 26.4 °F 13.2 °F 29.89 in West 19.0 mph 19.0 mph 57% 0.00 in
16:39 26.3 °F 13.1 °F 29.90 in WNW 13.0 mph 23.0 mph 57% 0.00 in
16:44 26.0 °F 13.6 °F 29.89 in WNW 14.0 mph 26.0 mph 59% 0.00 in
16:49 26.0 °F 14.0 °F 29.90 in WNW 15.0 mph 25.0 mph 60% 0.00 in
16:54 26.5 °F 14.1 °F 29.90 in NW 15.0 mph 23.0 mph 59% 0.00 in
16:59 26.5 °F 12.9 °F 29.90 in WNW 11.0 mph 22.0 mph 56% 0.00 in
17:04 26.6 °F 12.6 °F 29.90 in NW 4.0 mph 22.0 mph 55% 0.00 in
17:09 26.2 °F 12.6 °F 29.91 in NW 11.0 mph 26.0 mph 56% 0.00 in
17:14 25.6 °F 12.1 °F 29.91 in WNW 11.0 mph 26.0 mph 56% 0.00 in
17:19 25.6 °F 12.1 °F 29.91 in WNW 11.0 mph 25.0 mph 56% 0.00 in
17:24 26.0 °F 11.6 °F 29.91 in WNW 11.0 mph 19.0 mph 54% 0.00 in
17:29 25.8 °F 12.2 °F 29.91 in West 12.0 mph 20.0 mph 56% 0.00 in
17:34 26.0 °F 12.0 °F 29.92 in NNW 15.0 mph 23.0 mph 55% 0.00 in
17:39 26.1 °F 11.7 °F 29.92 in NW 13.0 mph 23.0 mph 54% 0.00 in
17:44 25.3 °F 11.4 °F 29.92 in NW 12.0 mph 24.0 mph 55% 0.00 in
17:49 25.0 °F 11.1 °F 29.92 in WNW 12.0 mph 24.0 mph 55% 0.00 in
17:54 25.3 °F 12.2 °F 29.92 in West 9.0 mph 16.0 mph 57% 0.00 in
17:59 25.4 °F 11.5 °F 29.93 in WNW 10.0 mph 18.0 mph 55% 0.00 in
18:04 25.2 °F 11.3 °F 29.93 in NW 7.0 mph 24.0 mph 55% 0.00 in
18:09 25.2 °F 11.7 °F 29.93 in WNW 10.0 mph 16.0 mph 56% 0.00 in
18:14 25.1 °F 11.6 °F 29.93 in NW 12.0 mph 21.0 mph 56% 0.00 in
18:19 25.0 °F 11.5 °F 29.94 in NW 10.0 mph 23.0 mph 56% 0.00 in
18:24 24.8 °F 11.3 °F 29.94 in NW 10.0 mph 23.0 mph 56% 0.00 in
18:29 24.6 °F 11.1 °F 29.95 in NW 10.0 mph 20.0 mph 56% 0.00 in
18:34 24.8 °F 11.3 °F 29.95 in WNW 8.0 mph 16.0 mph 56% 0.00 in
18:39 24.8 °F 12.1 °F 29.95 in WNW 8.0 mph 18.0 mph 58% 0.00 in
18:44 24.5 °F 12.6 °F 29.96 in West 9.0 mph 18.0 mph 60% 0.00 in
18:49 24.4 °F 12.5 °F 29.96 in West 9.0 mph 18.0 mph 60% 0.00 in
18:54 24.2 °F 12.3 °F 29.96 in West 8.0 mph 18.0 mph 60% 0.00 in
18:59 24.0 °F 12.5 °F 29.96 in WNW 9.0 mph 19.0 mph 61% 0.00 in
19:04 23.8 °F 12.3 °F 29.97 in WNW 8.0 mph 18.0 mph 61% 0.00 in
19:09 23.7 °F 12.6 °F 29.97 in WNW 9.0 mph 14.0 mph 62% 0.00 in
19:14 23.7 °F 12.2 °F 29.97 in West 18.0 mph 18.0 mph 61% 0.00 in
19:19 23.6 °F 12.1 °F 29.97 in WNW 10.0 mph 20.0 mph 61% 0.00 in
19:24 23.4 °F 12.3 °F 29.98 in WNW 10.0 mph 20.0 mph 62% 0.00 in
19:29 23.3 °F 12.2 °F 29.98 in NW 7.0 mph 12.0 mph 62% 0.00 in
19:34 23.2 °F 12.1 °F 29.98 in West 12.0 mph 19.0 mph 62% 0.00 in
19:39 23.2 °F 12.5 °F 29.99 in West 8.0 mph 20.0 mph 63% 0.00 in
19:44 23.1 °F 12.4 °F 29.99 in WNW 5.0 mph 17.0 mph 63% 0.00 in
19:49 22.9 °F 12.5 °F 29.99 in WNW 8.0 mph 17.0 mph 64% 0.00 in
19:54 22.8 °F 12.4 °F 29.99 in West 8.0 mph 20.0 mph 64% 0.00 in
19:59 22.7 °F 12.0 °F 30.00 in WNW 9.0 mph 20.0 mph 63% 0.00 in
20:04 22.7 °F 12.0 °F 30.00 in West 12.0 mph 19.0 mph 63% 0.00 in
20:09 22.7 °F 12.0 °F 30.00 in WNW 16.0 mph 18.0 mph 63% 0.00 in
20:14 22.6 °F 11.9 °F 30.01 in West 7.0 mph 16.0 mph 63% 0.00 in
20:19 22.5 °F 11.8 °F 30.01 in West 9.0 mph 19.0 mph 63% 0.00 in
20:24 22.5 °F 12.1 °F 30.01 in WNW 9.0 mph 19.0 mph 64% 0.00 in
20:29 22.4 °F 12.1 °F 30.01 in WNW 8.0 mph 19.0 mph 64% 0.00 in
20:34 22.4 °F 12.1 °F 30.01 in West 5.0 mph 20.0 mph 64% 0.00 in
20:39 22.3 °F 12.3 °F 30.02 in West 6.0 mph 12.0 mph 65% 0.00 in
20:44 22.2 °F 11.9 °F 30.02 in WNW 6.0 mph 12.0 mph 64% 0.00 in
20:49 22.1 °F 11.8 °F 30.02 in West 14.0 mph 19.0 mph 64% 0.00 in
20:54 22.0 °F 11.7 °F 30.02 in West 8.0 mph 19.0 mph 64% 0.00 in
20:59 21.8 °F 11.8 °F 30.03 in West 8.0 mph 15.0 mph 65% 0.00 in
21:04 21.6 °F 11.6 °F 30.03 in West 8.0 mph 17.0 mph 65% 0.00 in
21:09 21.5 °F 11.5 °F 30.03 in WNW 8.0 mph 17.0 mph 65% 0.00 in
21:14 21.5 °F 11.9 °F 30.03 in West 9.0 mph 15.0 mph 66% 0.00 in
21:19 21.5 °F 12.2 °F 30.03 in WNW 7.0 mph 16.0 mph 67% 0.00 in
21:24 21.6 °F 12.3 °F 30.03 in WNW 8.0 mph 14.0 mph 67% 0.00 in
21:29 21.7 °F 12.4 °F 30.03 in WNW 10.0 mph 14.0 mph 67% 0.00 in
21:34 21.5 °F 12.2 °F 30.03 in West 10.0 mph 12.0 mph 67% 0.00 in
21:39 21.6 °F 12.3 °F 30.03 in WNW 8.0 mph 14.0 mph 67% 0.00 in
21:44 21.5 °F 12.6 °F 30.04 in WNW 9.0 mph 14.0 mph 68% 0.00 in
21:49 21.5 °F 12.6 °F 30.04 in West 11.0 mph 13.0 mph 68% 0.00 in
21:54 21.6 °F 12.7 °F 30.04 in WNW 8.0 mph 14.0 mph 68% 0.00 in
21:59 21.5 °F 12.6 °F 30.04 in WNW 8.0 mph 14.0 mph 68% 0.00 in
22:04 21.5 °F 12.6 °F 30.04 in WNW 7.0 mph 14.0 mph 68% 0.00 in
22:09 21.4 °F 12.5 °F 30.04 in WNW 7.0 mph 14.0 mph 68% 0.00 in
22:14 21.2 °F 12.3 °F 30.04 in WNW 7.0 mph 12.0 mph 68% 0.00 in
22:19 20.9 °F 12.0 °F 30.04 in West 5.0 mph 11.0 mph 68% 0.00 in
22:24 20.7 °F 11.8 °F 30.04 in WNW 6.0 mph 11.0 mph 68% 0.00 in
22:29 20.6 °F 12.0 °F 30.04 in West 6.0 mph 10.0 mph 69% 0.00 in
22:34 20.6 °F 11.7 °F 30.04 in North 4.0 mph 14.0 mph 68% 0.00 in
22:39 20.6 °F 12.0 °F 30.04 in WNW 6.0 mph 15.0 mph 69% 0.00 in
22:44 20.6 °F 12.0 °F 30.04 in West 5.0 mph 12.0 mph 69% 0.00 in
22:49 20.5 °F 11.6 °F 30.04 in West 6.0 mph 16.0 mph 68% 0.00 in
22:54 20.6 °F 11.7 °F 30.04 in WNW 5.0 mph 15.0 mph 68% 0.00 in
22:59 20.6 °F 11.7 °F 30.04 in WNW 8.0 mph 15.0 mph 68% 0.00 in
23:04 20.6 °F 11.7 °F 30.04 in WNW 8.0 mph 15.0 mph 68% 0.00 in
23:09 20.5 °F 11.6 °F 30.03 in WNW 8.0 mph 13.0 mph 68% 0.00 in
23:14 20.5 °F 11.9 °F 30.03 in WNW 8.0 mph 14.0 mph 69% 0.00 in
23:19 20.6 °F 12.0 °F 30.03 in WNW 8.0 mph 16.0 mph 69% 0.00 in
23:24 20.5 °F 11.9 °F 30.03 in WNW 8.0 mph 16.0 mph 69% 0.00 in
23:29 20.4 °F 12.2 °F 30.03 in WNW 5.0 mph 12.0 mph 70% 0.00 in
23:34 20.5 °F 12.3 °F 30.03 in WNW 7.0 mph 14.0 mph 70% 0.00 in
23:39 20.5 °F 12.3 °F 30.03 in NNW 6.0 mph 16.0 mph 70% 0.00 in
23:44 20.4 °F 12.2 °F 30.03 in West 7.0 mph 15.0 mph 70% 0.00 in
23:49 20.5 °F 12.6 °F 30.03 in West 7.0 mph 14.0 mph 71% 0.00 in
23:54 20.4 °F 12.5 °F 30.03 in WNW 6.0 mph 11.0 mph 71% 0.00 in
23:59 20.3 °F 12.4 °F 30.03 in WNW 6.0 mph 12.0 mph 71% 0.00 in
Buffalo, New York, USA
Compliments of Weather Underground - 2.5 mb